sensor_id;sensor_type;location;lat;lon;timestamp;P1;durP1;ratioP1;P2;durP2;ratioP2
61460;SDS011;47325;50.506;4.472;2023-06-14T00:01:28;4.00;;;3.60;;
61460;SDS011;47325;50.506;4.472;2023-06-14T00:07:13;4.20;;;3.50;;
61460;SDS011;47325;50.506;4.472;2023-06-14T00:12:58;4.60;;;3.60;;
61460;SDS011;47325;50.506;4.472;2023-06-14T00:18:43;4.70;;;3.60;;
61460;SDS011;47325;50.506;4.472;2023-06-14T00:24:28;4.90;;;3.50;;
61460;SDS011;47325;50.506;4.472;2023-06-14T00:30:14;4.10;;;3.50;;
61460;SDS011;47325;50.506;4.472;2023-06-14T00:36:00;4.60;;;3.60;;
61460;SDS011;47325;50.506;4.472;2023-06-14T00:41:45;4.30;;;3.90;;
61460;SDS011;47325;50.506;4.472;2023-06-14T00:47:30;4.10;;;3.50;;
61460;SDS011;47325;50.506;4.472;2023-06-14T00:53:15;4.90;;;3.60;;
61460;SDS011;47325;50.506;4.472;2023-06-14T00:59:00;4.70;;;3.70;;
61460;SDS011;47325;50.506;4.472;2023-06-14T01:04:46;4.80;;;3.80;;
61460;SDS011;47325;50.506;4.472;2023-06-14T01:10:35;4.90;;;3.60;;
61460;SDS011;47325;50.506;4.472;2023-06-14T01:16:23;4.10;;;3.60;;
61460;SDS011;47325;50.506;4.472;2023-06-14T01:22:08;4.20;;;3.80;;
61460;SDS011;47325;50.506;4.472;2023-06-14T01:27:54;4.60;;;3.80;;
61460;SDS011;47325;50.506;4.472;2023-06-14T01:33:40;4.40;;;3.80;;
61460;SDS011;47325;50.506;4.472;2023-06-14T01:39:25;4.60;;;3.80;;
61460;SDS011;47325;50.506;4.472;2023-06-14T01:45:11;5.50;;;3.70;;
61460;SDS011;47325;50.506;4.472;2023-06-14T01:50:56;5.60;;;3.80;;
61460;SDS011;47325;50.506;4.472;2023-06-14T01:56:42;4.00;;;3.50;;
61460;SDS011;47325;50.506;4.472;2023-06-14T02:02:27;4.70;;;3.90;;
61460;SDS011;47325;50.506;4.472;2023-06-14T02:08:12;4.00;;;3.60;;
61460;SDS011;47325;50.506;4.472;2023-06-14T02:13:56;5.00;;;3.70;;
61460;SDS011;47325;50.506;4.472;2023-06-14T02:19:41;5.20;;;3.60;;
61460;SDS011;47325;50.506;4.472;2023-06-14T02:25:26;4.60;;;3.80;;
61460;SDS011;47325;50.506;4.472;2023-06-14T02:31:11;5.60;;;3.90;;
61460;SDS011;47325;50.506;4.472;2023-06-14T02:36:57;4.20;;;3.80;;
61460;SDS011;47325;50.506;4.472;2023-06-14T02:42:42;6.00;;;3.70;;
61460;SDS011;47325;50.506;4.472;2023-06-14T02:48:27;6.00;;;3.70;;
61460;SDS011;47325;50.506;4.472;2023-06-14T02:54:12;5.30;;;3.70;;
61460;SDS011;47325;50.506;4.472;2023-06-14T02:59:57;5.00;;;3.70;;
61460;SDS011;47325;50.506;4.472;2023-06-14T03:05:43;5.00;;;4.00;;
61460;SDS011;47325;50.506;4.472;2023-06-14T03:11:29;4.80;;;3.80;;
61460;SDS011;47325;50.506;4.472;2023-06-14T03:17:14;5.00;;;3.80;;
61460;SDS011;47325;50.506;4.472;2023-06-14T03:22:59;4.40;;;3.70;;
61460;SDS011;47325;50.506;4.472;2023-06-14T03:28:44;4.60;;;3.90;;
61460;SDS011;47325;50.506;4.472;2023-06-14T03:34:29;4.20;;;3.70;;
61460;SDS011;47325;50.506;4.472;2023-06-14T03:40:15;5.50;;;3.90;;
61460;SDS011;47325;50.506;4.472;2023-06-14T03:46:00;4.10;;;3.70;;
61460;SDS011;47325;50.506;4.472;2023-06-14T03:51:45;4.60;;;4.00;;
61460;SDS011;47325;50.506;4.472;2023-06-14T03:57:31;4.70;;;3.80;;
61460;SDS011;47325;50.506;4.472;2023-06-14T04:03:16;4.60;;;4.00;;
61460;SDS011;47325;50.506;4.472;2023-06-14T04:09:03;5.20;;;4.00;;
61460;SDS011;47325;50.506;4.472;2023-06-14T04:14:48;5.40;;;4.00;;
61460;SDS011;47325;50.506;4.472;2023-06-14T04:20:32;4.70;;;4.00;;
61460;SDS011;47325;50.506;4.472;2023-06-14T04:26:17;9.50;;;6.30;;
61460;SDS011;47325;50.506;4.472;2023-06-14T04:32:04;8.70;;;6.80;;
61460;SDS011;47325;50.506;4.472;2023-06-14T04:37:50;8.80;;;6.80;;
61460;SDS011;47325;50.506;4.472;2023-06-14T04:43:35;12.00;;;7.10;;
61460;SDS011;47325;50.506;4.472;2023-06-14T04:49:20;7.70;;;6.40;;
61460;SDS011;47325;50.506;4.472;2023-06-14T04:55:08;9.60;;;7.30;;
61460;SDS011;47325;50.506;4.472;2023-06-14T05:00:54;10.00;;;7.40;;
61460;SDS011;47325;50.506;4.472;2023-06-14T05:06:39;10.60;;;7.30;;
61460;SDS011;47325;50.506;4.472;2023-06-14T05:12:24;11.40;;;7.30;;
61460;SDS011;47325;50.506;4.472;2023-06-14T05:18:09;10.60;;;7.30;;
61460;SDS011;47325;50.506;4.472;2023-06-14T05:23:53;9.70;;;7.20;;
61460;SDS011;47325;50.506;4.472;2023-06-14T05:29:38;10.60;;;7.30;;
61460;SDS011;47325;50.506;4.472;2023-06-14T05:35:24;11.00;;;7.90;;
61460;SDS011;47325;50.506;4.472;2023-06-14T05:41:09;11.40;;;7.70;;
61460;SDS011;47325;50.506;4.472;2023-06-14T05:46:54;9.40;;;7.50;;
61460;SDS011;47325;50.506;4.472;2023-06-14T05:52:39;11.60;;;8.20;;
61460;SDS011;47325;50.506;4.472;2023-06-14T05:58:23;12.20;;;7.90;;
61460;SDS011;47325;50.506;4.472;2023-06-14T06:04:10;11.60;;;8.10;;
61460;SDS011;47325;50.506;4.472;2023-06-14T06:09:55;13.20;;;7.60;;
61460;SDS011;47325;50.506;4.472;2023-06-14T06:15:40;11.90;;;7.90;;
61460;SDS011;47325;50.506;4.472;2023-06-14T06:21:26;13.00;;;7.80;;
61460;SDS011;47325;50.506;4.472;2023-06-14T06:27:11;12.50;;;7.30;;
61460;SDS011;47325;50.506;4.472;2023-06-14T06:32:57;10.40;;;7.30;;
61460;SDS011;47325;50.506;4.472;2023-06-14T06:38:42;9.60;;;6.80;;
61460;SDS011;47325;50.506;4.472;2023-06-14T06:44:27;9.50;;;7.30;;
61460;SDS011;47325;50.506;4.472;2023-06-14T06:50:12;7.60;;;6.80;;
61460;SDS011;47325;50.506;4.472;2023-06-14T06:55:57;8.60;;;6.50;;
61460;SDS011;47325;50.506;4.472;2023-06-14T07:01:43;11.30;;;6.50;;
61460;SDS011;47325;50.506;4.472;2023-06-14T07:07:28;8.60;;;5.50;;
61460;SDS011;47325;50.506;4.472;2023-06-14T07:13:13;9.50;;;6.30;;
61460;SDS011;47325;50.506;4.472;2023-06-14T07:18:58;8.50;;;5.90;;
61460;SDS011;47325;50.506;4.472;2023-06-14T07:24:43;8.90;;;5.90;;
61460;SDS011;47325;50.506;4.472;2023-06-14T07:30:30;7.90;;;5.70;;
61460;SDS011;47325;50.506;4.472;2023-06-14T07:36:16;12.40;;;5.80;;
61460;SDS011;47325;50.506;4.472;2023-06-14T07:42:01;9.50;;;5.30;;
61460;SDS011;47325;50.506;4.472;2023-06-14T07:47:47;7.90;;;5.50;;
61460;SDS011;47325;50.506;4.472;2023-06-14T07:53:32;8.80;;;5.60;;
61460;SDS011;47325;50.506;4.472;2023-06-14T07:59:17;7.80;;;5.70;;
61460;SDS011;47325;50.506;4.472;2023-06-14T08:05:04;10.90;;;5.70;;
61460;SDS011;47325;50.506;4.472;2023-06-14T08:10:49;7.80;;;5.40;;
61460;SDS011;47325;50.506;4.472;2023-06-14T08:16:34;7.30;;;5.70;;
61460;SDS011;47325;50.506;4.472;2023-06-14T08:22:19;6.10;;;5.10;;
61460;SDS011;47325;50.506;4.472;2023-06-14T08:28:04;6.50;;;4.80;;
61460;SDS011;47325;50.506;4.472;2023-06-14T08:33:50;5.30;;;4.70;;
61460;SDS011;47325;50.506;4.472;2023-06-14T08:39:35;8.10;;;5.00;;
61460;SDS011;47325;50.506;4.472;2023-06-14T08:45:21;6.40;;;4.60;;
61460;SDS011;47325;50.506;4.472;2023-06-14T08:51:14;6.70;;;4.40;;
61460;SDS011;47325;50.506;4.472;2023-06-14T08:57:00;7.70;;;4.70;;
61460;SDS011;47325;50.506;4.472;2023-06-14T09:02:45;5.10;;;4.10;;
61460;SDS011;47325;50.506;4.472;2023-06-14T09:08:30;8.50;;;4.50;;
61460;SDS011;47325;50.506;4.472;2023-06-14T09:14:18;8.10;;;4.40;;
61460;SDS011;47325;50.506;4.472;2023-06-14T09:20:04;6.20;;;4.40;;
61460;SDS011;47325;50.506;4.472;2023-06-14T09:25:50;7.90;;;4.20;;
61460;SDS011;47325;50.506;4.472;2023-06-14T09:31:35;7.80;;;4.30;;
61460;SDS011;47325;50.506;4.472;2023-06-14T09:37:31;6.40;;;4.10;;
61460;SDS011;47325;50.506;4.472;2023-06-14T09:43:17;6.40;;;4.40;;
61460;SDS011;47325;50.506;4.472;2023-06-14T09:49:03;7.90;;;4.40;;
61460;SDS011;47325;50.506;4.472;2023-06-14T09:54:49;6.90;;;4.60;;
61460;SDS011;47325;50.506;4.472;2023-06-14T10:00:34;10.40;;;4.80;;
61460;SDS011;47325;50.506;4.472;2023-06-14T10:06:20;9.70;;;4.70;;
61460;SDS011;47325;50.506;4.472;2023-06-14T10:12:06;8.70;;;4.40;;
61460;SDS011;47325;50.506;4.472;2023-06-14T10:17:52;8.60;;;4.20;;
61460;SDS011;47325;50.506;4.472;2023-06-14T10:23:41;4.90;;;3.90;;
61460;SDS011;47325;50.506;4.472;2023-06-14T10:29:28;6.30;;;4.40;;
61460;SDS011;47325;50.506;4.472;2023-06-14T10:35:15;9.80;;;4.30;;
61460;SDS011;47325;50.506;4.472;2023-06-14T10:41:02;8.80;;;4.10;;
61460;SDS011;47325;50.506;4.472;2023-06-14T10:46:49;5.80;;;4.50;;
61460;SDS011;47325;50.506;4.472;2023-06-14T10:52:37;8.90;;;4.60;;
61460;SDS011;47325;50.506;4.472;2023-06-14T10:58:27;6.00;;;4.50;;
61460;SDS011;47325;50.506;4.472;2023-06-14T11:04:13;6.30;;;4.30;;
61460;SDS011;47325;50.506;4.472;2023-06-14T11:10:03;7.00;;;4.00;;
61460;SDS011;47325;50.506;4.472;2023-06-14T11:15:50;8.50;;;4.10;;
61460;SDS011;47325;50.506;4.472;2023-06-14T11:21:36;10.40;;;3.90;;
61460;SDS011;47325;50.506;4.472;2023-06-14T11:27:24;7.10;;;4.00;;
61460;SDS011;47325;50.506;4.472;2023-06-14T11:33:15;7.20;;;3.90;;
61460;SDS011;47325;50.506;4.472;2023-06-14T11:39:02;7.20;;;4.10;;
61460;SDS011;47325;50.506;4.472;2023-06-14T11:44:49;6.70;;;4.00;;
61460;SDS011;47325;50.506;4.472;2023-06-14T11:50:49;5.50;;;4.20;;
61460;SDS011;47325;50.506;4.472;2023-06-14T11:56:34;6.50;;;3.90;;
61460;SDS011;47325;50.506;4.472;2023-06-14T12:02:19;6.60;;;3.60;;
61460;SDS011;47325;50.506;4.472;2023-06-14T12:08:09;7.70;;;4.20;;
61460;SDS011;47325;50.506;4.472;2023-06-14T12:13:54;9.10;;;4.00;;
61460;SDS011;47325;50.506;4.472;2023-06-14T12:19:48;6.90;;;3.70;;
61460;SDS011;47325;50.506;4.472;2023-06-14T12:25:35;6.10;;;3.80;;
61460;SDS011;47325;50.506;4.472;2023-06-14T12:31:20;7.70;;;3.80;;
61460;SDS011;47325;50.506;4.472;2023-06-14T12:37:06;7.70;;;3.60;;
61460;SDS011;47325;50.506;4.472;2023-06-14T12:42:51;5.70;;;3.30;;
61460;SDS011;47325;50.506;4.472;2023-06-14T12:48:36;7.50;;;3.20;;
61460;SDS011;47325;50.506;4.472;2023-06-14T12:54:21;6.80;;;3.50;;
61460;SDS011;47325;50.506;4.472;2023-06-14T13:00:22;6.00;;;3.50;;
61460;SDS011;47325;50.506;4.472;2023-06-14T13:06:07;6.20;;;3.40;;
61460;SDS011;47325;50.506;4.472;2023-06-14T13:11:52;5.90;;;3.00;;
61460;SDS011;47325;50.506;4.472;2023-06-14T13:17:38;8.00;;;3.30;;
61460;SDS011;47325;50.506;4.472;2023-06-14T13:23:23;7.80;;;3.00;;
61460;SDS011;47325;50.506;4.472;2023-06-14T13:29:08;6.20;;;3.10;;
61460;SDS011;47325;50.506;4.472;2023-06-14T13:34:53;6.20;;;3.20;;
61460;SDS011;47325;50.506;4.472;2023-06-14T13:40:38;5.40;;;2.90;;
61460;SDS011;47325;50.506;4.472;2023-06-14T13:46:23;5.40;;;3.10;;
61460;SDS011;47325;50.506;4.472;2023-06-14T13:52:09;8.90;;;3.10;;
61460;SDS011;47325;50.506;4.472;2023-06-14T13:57:54;9.40;;;3.00;;
61460;SDS011;47325;50.506;4.472;2023-06-14T14:03:39;6.30;;;2.90;;
61460;SDS011;47325;50.506;4.472;2023-06-14T14:09:25;8.90;;;3.00;;
61460;SDS011;47325;50.506;4.472;2023-06-14T14:15:10;5.70;;;2.60;;
61460;SDS011;47325;50.506;4.472;2023-06-14T14:20:56;8.40;;;2.80;;
61460;SDS011;47325;50.506;4.472;2023-06-14T14:26:41;4.80;;;2.70;;
61460;SDS011;47325;50.506;4.472;2023-06-14T14:32:27;4.80;;;2.50;;
61460;SDS011;47325;50.506;4.472;2023-06-14T14:38:13;4.30;;;2.10;;
61460;SDS011;47325;50.506;4.472;2023-06-14T14:43:58;4.40;;;2.40;;
61460;SDS011;47325;50.506;4.472;2023-06-14T14:49:43;4.20;;;1.90;;
61460;SDS011;47325;50.506;4.472;2023-06-14T14:55:28;4.10;;;1.60;;
61460;SDS011;47325;50.506;4.472;2023-06-14T15:01:13;9.20;;;1.90;;
61460;SDS011;47325;50.506;4.472;2023-06-14T15:07:01;4.80;;;1.80;;
61460;SDS011;47325;50.506;4.472;2023-06-14T15:12:47;3.40;;;1.80;;
61460;SDS011;47325;50.506;4.472;2023-06-14T15:18:32;3.50;;;1.40;;
61460;SDS011;47325;50.506;4.472;2023-06-14T15:24:17;3.60;;;1.40;;
61460;SDS011;47325;50.506;4.472;2023-06-14T15:30:22;2.80;;;1.40;;
61460;SDS011;47325;50.506;4.472;2023-06-14T15:36:07;2.80;;;1.30;;
61460;SDS011;47325;50.506;4.472;2023-06-14T15:41:53;2.50;;;1.30;;
61460;SDS011;47325;50.506;4.472;2023-06-14T15:47:39;2.00;;;1.40;;
61460;SDS011;47325;50.506;4.472;2023-06-14T15:53:25;3.20;;;1.60;;
61460;SDS011;47325;50.506;4.472;2023-06-14T15:59:10;5.40;;;1.40;;
61460;SDS011;47325;50.506;4.472;2023-06-14T16:04:56;5.50;;;1.70;;
61460;SDS011;47325;50.506;4.472;2023-06-14T16:10:43;4.00;;;1.50;;
61460;SDS011;47325;50.506;4.472;2023-06-14T16:16:30;2.60;;;1.60;;
61460;SDS011;47325;50.506;4.472;2023-06-14T16:22:16;6.00;;;1.80;;
61460;SDS011;47325;50.506;4.472;2023-06-14T16:28:05;4.50;;;1.60;;
61460;SDS011;47325;50.506;4.472;2023-06-14T16:33:58;3.40;;;1.50;;
61460;SDS011;47325;50.506;4.472;2023-06-14T16:39:43;3.70;;;1.50;;
61460;SDS011;47325;50.506;4.472;2023-06-14T16:45:28;4.00;;;2.10;;
61460;SDS011;47325;50.506;4.472;2023-06-14T16:51:14;2.90;;;1.60;;
61460;SDS011;47325;50.506;4.472;2023-06-14T16:56:59;4.30;;;1.70;;
61460;SDS011;47325;50.506;4.472;2023-06-14T17:02:44;5.70;;;1.80;;
61460;SDS011;47325;50.506;4.472;2023-06-14T17:08:29;4.30;;;1.60;;
61460;SDS011;47325;50.506;4.472;2023-06-14T17:14:15;2.60;;;1.50;;
61460;SDS011;47325;50.506;4.472;2023-06-14T17:20:00;3.80;;;1.60;;
61460;SDS011;47325;50.506;4.472;2023-06-14T17:25:45;4.60;;;1.60;;
61460;SDS011;47325;50.506;4.472;2023-06-14T17:31:30;8.20;;;1.90;;
61460;SDS011;47325;50.506;4.472;2023-06-14T17:37:15;7.50;;;1.90;;
61460;SDS011;47325;50.506;4.472;2023-06-14T17:43:00;6.00;;;1.50;;
61460;SDS011;47325;50.506;4.472;2023-06-14T17:48:45;4.00;;;1.50;;
61460;SDS011;47325;50.506;4.472;2023-06-14T17:54:42;7.40;;;1.80;;
61460;SDS011;47325;50.506;4.472;2023-06-14T18:00:27;2.30;;;1.40;;
61460;SDS011;47325;50.506;4.472;2023-06-14T18:06:12;5.90;;;1.80;;
61460;SDS011;47325;50.506;4.472;2023-06-14T18:11:57;4.20;;;1.40;;
61460;SDS011;47325;50.506;4.472;2023-06-14T18:17:42;3.00;;;1.70;;
61460;SDS011;47325;50.506;4.472;2023-06-14T18:23:28;5.80;;;1.60;;
61460;SDS011;47325;50.506;4.472;2023-06-14T18:29:13;6.30;;;1.90;;
61460;SDS011;47325;50.506;4.472;2023-06-14T18:34:59;7.90;;;1.50;;
61460;SDS011;47325;50.506;4.472;2023-06-14T18:40:44;5.80;;;1.60;;
61460;SDS011;47325;50.506;4.472;2023-06-14T18:46:29;4.20;;;1.30;;
61460;SDS011;47325;50.506;4.472;2023-06-14T18:52:16;3.30;;;1.60;;
61460;SDS011;47325;50.506;4.472;2023-06-14T18:58:02;3.10;;;1.40;;
61460;SDS011;47325;50.506;4.472;2023-06-14T19:03:47;4.20;;;1.30;;
61460;SDS011;47325;50.506;4.472;2023-06-14T19:09:33;3.40;;;1.40;;
61460;SDS011;47325;50.506;4.472;2023-06-14T19:15:18;4.10;;;1.30;;
61460;SDS011;47325;50.506;4.472;2023-06-14T19:21:03;4.60;;;1.20;;
61460;SDS011;47325;50.506;4.472;2023-06-14T19:26:49;2.30;;;1.30;;
61460;SDS011;47325;50.506;4.472;2023-06-14T19:32:34;7.30;;;1.40;;
61460;SDS011;47325;50.506;4.472;2023-06-14T19:38:19;4.80;;;1.70;;
61460;SDS011;47325;50.506;4.472;2023-06-14T19:44:04;3.50;;;1.40;;
61460;SDS011;47325;50.506;4.472;2023-06-14T19:49:49;4.60;;;1.70;;
61460;SDS011;47325;50.506;4.472;2023-06-14T19:55:34;3.60;;;1.60;;
61460;SDS011;47325;50.506;4.472;2023-06-14T20:01:19;6.40;;;1.60;;
61460;SDS011;47325;50.506;4.472;2023-06-14T20:07:04;4.30;;;1.50;;
61460;SDS011;47325;50.506;4.472;2023-06-14T20:12:50;3.70;;;1.40;;
61460;SDS011;47325;50.506;4.472;2023-06-14T20:18:35;4.50;;;1.90;;
61460;SDS011;47325;50.506;4.472;2023-06-14T20:24:20;4.00;;;1.50;;
61460;SDS011;47325;50.506;4.472;2023-06-14T20:30:06;5.80;;;1.50;;
61460;SDS011;47325;50.506;4.472;2023-06-14T20:35:51;3.30;;;1.60;;
61460;SDS011;47325;50.506;4.472;2023-06-14T20:41:36;4.10;;;1.60;;
61460;SDS011;47325;50.506;4.472;2023-06-14T20:47:22;2.30;;;1.30;;
61460;SDS011;47325;50.506;4.472;2023-06-14T20:53:08;2.40;;;1.50;;
61460;SDS011;47325;50.506;4.472;2023-06-14T20:58:53;4.20;;;1.40;;
61460;SDS011;47325;50.506;4.472;2023-06-14T21:04:38;4.70;;;1.70;;
61460;SDS011;47325;50.506;4.472;2023-06-14T21:10:23;3.80;;;1.50;;
61460;SDS011;47325;50.506;4.472;2023-06-14T21:16:08;2.00;;;1.30;;
61460;SDS011;47325;50.506;4.472;2023-06-14T21:21:54;2.60;;;1.40;;
61460;SDS011;47325;50.506;4.472;2023-06-14T21:27:39;3.20;;;1.40;;
61460;SDS011;47325;50.506;4.472;2023-06-14T21:33:24;1.60;;;1.30;;
61460;SDS011;47325;50.506;4.472;2023-06-14T21:39:09;2.50;;;1.50;;
61460;SDS011;47325;50.506;4.472;2023-06-14T21:44:54;3.20;;;1.50;;
61460;SDS011;47325;50.506;4.472;2023-06-14T21:50:39;1.70;;;1.50;;
61460;SDS011;47325;50.506;4.472;2023-06-14T21:56:25;2.10;;;1.40;;
61460;SDS011;47325;50.506;4.472;2023-06-14T22:02:11;3.90;;;1.50;;
61460;SDS011;47325;50.506;4.472;2023-06-14T22:07:56;2.40;;;1.40;;
61460;SDS011;47325;50.506;4.472;2023-06-14T22:13:41;1.70;;;1.40;;
61460;SDS011;47325;50.506;4.472;2023-06-14T22:19:26;2.10;;;1.40;;
61460;SDS011;47325;50.506;4.472;2023-06-14T22:25:12;2.90;;;1.40;;
61460;SDS011;47325;50.506;4.472;2023-06-14T22:30:57;3.00;;;1.40;;
61460;SDS011;47325;50.506;4.472;2023-06-14T22:36:41;1.80;;;1.40;;
61460;SDS011;47325;50.506;4.472;2023-06-14T22:42:28;2.60;;;1.40;;
61460;SDS011;47325;50.506;4.472;2023-06-14T22:48:13;2.10;;;1.40;;
61460;SDS011;47325;50.506;4.472;2023-06-14T22:53:58;3.20;;;1.40;;
61460;SDS011;47325;50.506;4.472;2023-06-14T22:59:43;2.80;;;1.60;;
61460;SDS011;47325;50.506;4.472;2023-06-14T23:05:28;1.80;;;1.30;;
61460;SDS011;47325;50.506;4.472;2023-06-14T23:11:13;3.20;;;1.50;;
61460;SDS011;47325;50.506;4.472;2023-06-14T23:16:59;1.80;;;1.40;;
61460;SDS011;47325;50.506;4.472;2023-06-14T23:22:44;1.80;;;1.40;;
61460;SDS011;47325;50.506;4.472;2023-06-14T23:28:29;3.70;;;1.40;;
61460;SDS011;47325;50.506;4.472;2023-06-14T23:34:14;1.60;;;1.20;;
61460;SDS011;47325;50.506;4.472;2023-06-14T23:39:59;2.20;;;1.50;;
61460;SDS011;47325;50.506;4.472;2023-06-14T23:45:44;3.00;;;1.50;;
61460;SDS011;47325;50.506;4.472;2023-06-14T23:51:29;2.10;;;1.40;;
61460;SDS011;47325;50.506;4.472;2023-06-14T23:57:14;3.90;;;1.50;;
